sensor_id;sensor_type;location;lat;lon;timestamp;noise_LAeq;noise_LA_min;noise_LA_max;noise_LA01;noise_LA95
61286;Laerm;56412;53.148;8.204;2022-10-28T00:00:19;48.03;46.54;50.26;;
61286;Laerm;56412;53.148;8.204;2022-10-28T00:02:44;48.03;46.70;49.60;;
61286;Laerm;56412;53.148;8.204;2022-10-28T00:05:10;48.13;46.49;55.23;;
61286;Laerm;56412;53.148;8.204;2022-10-28T00:07:35;54.00;46.93;61.11;;
61286;Laerm;56412;53.148;8.204;2022-10-28T00:10:00;48.57;46.40;52.08;;
61286;Laerm;56412;53.148;8.204;2022-10-28T00:12:25;49.99;47.08;53.57;;
61286;Laerm;56412;53.148;8.204;2022-10-28T00:14:51;48.71;46.54;53.01;;
61286;Laerm;56412;53.148;8.204;2022-10-28T00:17:16;48.33;46.62;52.49;;
61286;Laerm;56412;53.148;8.204;2022-10-28T00:19:42;48.79;46.67;52.17;;
61286;Laerm;56412;53.148;8.204;2022-10-28T00:22:07;50.49;46.46;60.05;;
61286;Laerm;56412;53.148;8.204;2022-10-28T00:24:32;55.70;46.46;61.20;;
61286;Laerm;56412;53.148;8.204;2022-10-28T00:26:57;55.24;46.59;60.65;;
61286;Laerm;56412;53.148;8.204;2022-10-28T00:29:23;48.57;46.49;53.22;;
61286;Laerm;56412;53.148;8.204;2022-10-28T00:31:48;49.01;46.70;53.35;;
61286;Laerm;56412;53.148;8.204;2022-10-28T00:34:16;48.69;46.43;56.76;;
61286;Laerm;56412;53.148;8.204;2022-10-28T00:36:43;48.00;46.43;51.32;;
61286;Laerm;56412;53.148;8.204;2022-10-28T00:39:15;47.85;46.51;50.79;;
61286;Laerm;56412;53.148;8.204;2022-10-28T00:41:44;48.22;46.49;52.62;;
61286;Laerm;56412;53.148;8.204;2022-10-28T00:47:04;47.92;46.26;50.34;;
61286;Laerm;56412;53.148;8.204;2022-10-28T00:49:36;47.84;46.32;53.04;;
61286;Laerm;56412;53.148;8.204;2022-10-28T00:52:06;47.88;46.20;51.90;;
61286;Laerm;56412;53.148;8.204;2022-10-28T00:54:33;47.92;46.35;53.58;;
61286;Laerm;56412;53.148;8.204;2022-10-28T00:57:03;47.71;46.26;49.75;;
61286;Laerm;56412;53.148;8.204;2022-10-28T00:59:35;48.58;46.65;51.63;;
61286;Laerm;56412;53.148;8.204;2022-10-28T01:02:02;47.80;46.43;53.38;;
61286;Laerm;56412;53.148;8.204;2022-10-28T01:04:27;49.73;46.80;56.71;;
61286;Laerm;56412;53.148;8.204;2022-10-28T01:06:55;48.84;46.46;56.12;;
61286;Laerm;56412;53.148;8.204;2022-10-28T01:09:20;48.71;46.49;54.53;;
61286;Laerm;56412;53.148;8.204;2022-10-28T01:29:34;47.31;46.20;50.77;;
61286;Laerm;56412;53.148;8.204;2022-10-28T01:31:50;47.33;46.17;49.11;;
61286;Laerm;56412;53.148;8.204;2022-10-28T01:34:43;47.43;46.14;52.29;;
61286;Laerm;56412;53.148;8.204;2022-10-28T01:37:17;48.15;46.43;54.93;;
61286;Laerm;56412;53.148;8.204;2022-10-28T01:39:59;47.84;46.35;54.89;;
61286;Laerm;56412;53.148;8.204;2022-10-28T01:42:33;49.09;46.49;57.99;;
61286;Laerm;56412;53.148;8.204;2022-10-28T01:45:27;49.74;46.05;57.90;;
61286;Laerm;56412;53.148;8.204;2022-10-28T01:48:00;48.49;46.32;53.82;;
61286;Laerm;56412;53.148;8.204;2022-10-28T01:50:32;48.15;45.93;53.14;;
61286;Laerm;56412;53.148;8.204;2022-10-28T01:53:04;47.78;45.96;51.35;;
61286;Laerm;56412;53.148;8.204;2022-10-28T01:55:40;47.39;46.11;51.40;;
61286;Laerm;56412;53.148;8.204;2022-10-28T01:58:08;47.41;46.20;52.55;;
61286;Laerm;56412;53.148;8.204;2022-10-28T02:00:36;47.20;46.11;52.00;;
61286;Laerm;56412;53.148;8.204;2022-10-28T02:03:05;47.41;45.99;52.12;;
61286;Laerm;56412;53.148;8.204;2022-10-28T02:05:41;47.43;46.23;49.17;;
61286;Laerm;56412;53.148;8.204;2022-10-28T02:13:36;48.60;46.54;54.42;;
61286;Laerm;56412;53.148;8.204;2022-10-28T02:16:37;47.43;45.93;49.12;;
61286;Laerm;56412;53.148;8.204;2022-10-28T02:19:30;47.59;46.17;49.67;;
61286;Laerm;56412;53.148;8.204;2022-10-28T02:22:18;51.13;46.37;57.33;;
61286;Laerm;56412;53.148;8.204;2022-10-28T02:27:33;48.80;45.93;55.80;;
61286;Laerm;56412;53.148;8.204;2022-10-28T02:30:08;50.23;46.26;55.48;;
61286;Laerm;56412;53.148;8.204;2022-10-28T02:32:40;48.57;46.29;53.58;;
61286;Laerm;56412;53.148;8.204;2022-10-28T02:35:11;48.74;46.54;53.32;;
61286;Laerm;56412;53.148;8.204;2022-10-28T02:37:40;48.76;46.59;53.96;;
61286;Laerm;56412;53.148;8.204;2022-10-28T02:40:12;48.34;46.46;53.48;;
61286;Laerm;56412;53.148;8.204;2022-10-28T02:42:47;47.56;46.32;58.03;;
61286;Laerm;56412;53.148;8.204;2022-10-28T02:45:18;47.56;46.40;51.63;;
61286;Laerm;56412;53.148;8.204;2022-10-28T02:47:50;47.51;46.32;52.91;;
61286;Laerm;56412;53.148;8.204;2022-10-28T02:50:21;47.53;46.11;51.78;;
61286;Laerm;56412;53.148;8.204;2022-10-28T02:52:53;48.08;46.32;53.73;;
61286;Laerm;56412;53.148;8.204;2022-10-28T02:55:22;47.91;46.49;52.62;;
61286;Laerm;56412;53.148;8.204;2022-10-28T02:57:49;48.20;46.90;51.37;;
61286;Laerm;56412;53.148;8.204;2022-10-28T03:00:18;47.94;46.62;51.16;;
61286;Laerm;56412;53.148;8.204;2022-10-28T03:02:43;47.70;46.43;50.55;;
61286;Laerm;56412;53.148;8.204;2022-10-28T03:05:09;47.64;46.29;51.61;;
61286;Laerm;56412;53.148;8.204;2022-10-28T03:07:34;48.03;46.59;50.97;;
61286;Laerm;56412;53.148;8.204;2022-10-28T03:09:59;48.05;46.49;52.27;;
61286;Laerm;56412;53.148;8.204;2022-10-28T03:12:25;48.00;46.49;52.52;;
61286;Laerm;56412;53.148;8.204;2022-10-28T03:14:50;47.69;46.40;51.03;;
61286;Laerm;56412;53.148;8.204;2022-10-28T03:17:15;48.08;46.51;57.10;;
61286;Laerm;56412;53.148;8.204;2022-10-28T03:19:42;47.55;46.14;49.03;;
61286;Laerm;56412;53.148;8.204;2022-10-28T03:22:07;47.55;46.20;49.50;;
61286;Laerm;56412;53.148;8.204;2022-10-28T03:24:32;47.68;46.40;58.97;;
61286;Laerm;56412;53.148;8.204;2022-10-28T03:26:58;52.30;46.67;59.53;;
61286;Laerm;56412;53.148;8.204;2022-10-28T03:29:23;49.99;46.43;60.65;;
61286;Laerm;56412;53.148;8.204;2022-10-28T03:31:49;55.66;46.75;61.32;;
61286;Laerm;56412;53.148;8.204;2022-10-28T03:34:14;53.41;46.46;60.45;;
61286;Laerm;56412;53.148;8.204;2022-10-28T03:36:39;47.72;46.35;51.11;;
61286;Laerm;56412;53.148;8.204;2022-10-28T03:39:04;47.75;46.43;51.66;;
61286;Laerm;56412;53.148;8.204;2022-10-28T03:41:30;47.69;46.37;51.19;;
61286;Laerm;56412;53.148;8.204;2022-10-28T03:43:55;47.75;46.14;51.52;;
61286;Laerm;56412;53.148;8.204;2022-10-28T03:46:20;47.78;46.49;49.81;;
61286;Laerm;56412;53.148;8.204;2022-10-28T03:48:46;47.75;46.49;49.87;;
61286;Laerm;56412;53.148;8.204;2022-10-28T03:51:11;47.92;46.38;51.54;;
61286;Laerm;56412;53.148;8.204;2022-10-28T03:53:36;47.81;46.40;50.81;;
61286;Laerm;56412;53.148;8.204;2022-10-28T03:56:02;47.83;46.49;52.00;;
61286;Laerm;56412;53.148;8.204;2022-10-28T03:58:27;47.96;46.40;50.52;;
61286;Laerm;56412;53.148;8.204;2022-10-28T04:00:53;49.59;46.83;52.71;;
61286;Laerm;56412;53.148;8.204;2022-10-28T04:03:20;50.94;47.15;58.85;;
61286;Laerm;56412;53.148;8.204;2022-10-28T04:05:46;51.35;47.38;56.78;;
61286;Laerm;56412;53.148;8.204;2022-10-28T04:08:18;50.85;46.90;62.51;;
61286;Laerm;56412;53.148;8.204;2022-10-28T04:10:44;49.85;46.78;55.37;;
61286;Laerm;56412;53.148;8.204;2022-10-28T04:13:10;49.16;46.90;59.35;;
61286;Laerm;56412;53.148;8.204;2022-10-28T04:15:36;49.07;46.90;53.75;;
61286;Laerm;56412;53.148;8.204;2022-10-28T04:18:01;53.71;47.00;62.43;;
61286;Laerm;56412;53.148;8.204;2022-10-28T04:20:28;49.79;47.36;53.53;;
61286;Laerm;56412;53.148;8.204;2022-10-28T04:22:53;55.08;46.82;65.04;;
61286;Laerm;56412;53.148;8.204;2022-10-28T04:25:22;52.27;46.59;60.18;;
61286;Laerm;56412;53.148;8.204;2022-10-28T04:27:48;48.28;46.46;52.21;;
61286;Laerm;56412;53.148;8.204;2022-10-28T04:30:13;48.98;46.73;54.30;;
61286;Laerm;56412;53.148;8.204;2022-10-28T04:32:40;47.60;46.46;49.37;;
61286;Laerm;56412;53.148;8.204;2022-10-28T04:35:07;47.59;46.43;49.43;;
61286;Laerm;56412;53.148;8.204;2022-10-28T04:37:32;47.62;46.48;50.57;;
61286;Laerm;56412;53.148;8.204;2022-10-28T04:39:57;47.71;46.43;49.37;;
61286;Laerm;56412;53.148;8.204;2022-10-28T04:42:23;47.51;46.37;49.33;;
61286;Laerm;56412;53.148;8.204;2022-10-28T04:44:48;47.59;46.49;49.06;;
61286;Laerm;56412;53.148;8.204;2022-10-28T04:47:13;47.44;46.32;49.15;;
61286;Laerm;56412;53.148;8.204;2022-10-28T04:49:39;47.58;46.40;49.00;;
61286;Laerm;56412;53.148;8.204;2022-10-28T04:52:04;47.60;46.29;50.81;;
61286;Laerm;56412;53.148;8.204;2022-10-28T04:54:30;47.77;46.43;49.31;;
61286;Laerm;56412;53.148;8.204;2022-10-28T04:56:55;47.89;46.67;49.50;;
61286;Laerm;56412;53.148;8.204;2022-10-28T04:59:20;47.51;46.26;48.75;;
61286;Laerm;56412;53.148;8.204;2022-10-28T05:01:45;47.49;46.49;48.92;;
61286;Laerm;56412;53.148;8.204;2022-10-28T05:04:11;47.50;46.46;48.78;;
61286;Laerm;56412;53.148;8.204;2022-10-28T05:06:36;47.48;46.43;48.67;;
61286;Laerm;56412;53.148;8.204;2022-10-28T05:09:02;47.48;46.20;48.85;;
61286;Laerm;56412;53.148;8.204;2022-10-28T05:11:27;47.60;46.37;48.96;;
61286;Laerm;56412;53.148;8.204;2022-10-28T05:13:53;47.89;46.83;49.17;;
61286;Laerm;56412;53.148;8.204;2022-10-28T05:16:18;47.84;46.51;49.41;;
61286;Laerm;56412;53.148;8.204;2022-10-28T05:18:43;47.49;46.35;48.91;;
61286;Laerm;56412;53.148;8.204;2022-10-28T05:21:09;47.48;46.43;48.99;;
61286;Laerm;56412;53.148;8.204;2022-10-28T05:23:34;47.53;46.35;49.09;;
61286;Laerm;56412;53.148;8.204;2022-10-28T05:25:59;47.57;46.08;49.52;;
61286;Laerm;56412;53.148;8.204;2022-10-28T05:28:25;47.45;46.37;49.03;;
61286;Laerm;56412;53.148;8.204;2022-10-28T05:30:50;47.54;46.17;49.02;;
61286;Laerm;56412;53.148;8.204;2022-10-28T05:33:15;47.50;46.40;49.24;;
61286;Laerm;56412;53.148;8.204;2022-10-28T05:35:41;47.54;46.54;48.88;;
61286;Laerm;56412;53.148;8.204;2022-10-28T05:38:06;47.47;46.29;48.72;;
61286;Laerm;56412;53.148;8.204;2022-10-28T05:40:32;47.50;46.08;49.23;;
61286;Laerm;56412;53.148;8.204;2022-10-28T05:42:58;48.43;46.49;56.00;;
61286;Laerm;56412;53.148;8.204;2022-10-28T05:45:24;48.19;46.40;51.29;;
61286;Laerm;56412;53.148;8.204;2022-10-28T05:47:49;48.69;46.43;62.29;;
61286;Laerm;56412;53.148;8.204;2022-10-28T05:50:16;47.60;46.32;49.56;;
61286;Laerm;56412;53.148;8.204;2022-10-28T05:52:49;47.87;46.23;54.80;;
61286;Laerm;56412;53.148;8.204;2022-10-28T05:55:16;48.18;46.29;54.09;;
61286;Laerm;56412;53.148;8.204;2022-10-28T05:57:46;47.98;46.51;56.71;;
61286;Laerm;56412;53.148;8.204;2022-10-28T06:00:12;48.10;46.49;55.30;;
61286;Laerm;56412;53.148;8.204;2022-10-28T06:02:38;47.84;46.20;50.47;;
61286;Laerm;56412;53.148;8.204;2022-10-28T06:05:04;47.39;46.35;49.29;;
61286;Laerm;56412;53.148;8.204;2022-10-28T06:07:29;47.53;46.40;50.97;;
61286;Laerm;56412;53.148;8.204;2022-10-28T06:09:54;48.56;46.20;54.94;;
61286;Laerm;56412;53.148;8.204;2022-10-28T06:12:20;48.04;46.29;52.51;;
61286;Laerm;56412;53.148;8.204;2022-10-28T06:14:45;47.56;46.46;50.38;;
61286;Laerm;56412;53.148;8.204;2022-10-28T06:17:10;48.18;46.26;54.00;;
61286;Laerm;56412;53.148;8.204;2022-10-28T06:19:35;47.77;46.37;51.67;;
61286;Laerm;56412;53.148;8.204;2022-10-28T06:22:01;47.58;46.37;50.33;;
61286;Laerm;56412;53.148;8.204;2022-10-28T06:24:26;48.26;46.37;52.53;;
61286;Laerm;56412;53.148;8.204;2022-10-28T06:26:51;47.62;46.20;50.49;;
61286;Laerm;56412;53.148;8.204;2022-10-28T06:29:16;47.60;46.23;49.45;;
61286;Laerm;56412;53.148;8.204;2022-10-28T06:31:42;47.87;46.57;50.72;;
61286;Laerm;56412;53.148;8.204;2022-10-28T06:34:09;47.65;46.37;49.47;;
61286;Laerm;56412;53.148;8.204;2022-10-28T06:36:34;47.64;46.40;49.64;;
61286;Laerm;56412;53.148;8.204;2022-10-28T06:38:59;47.48;46.35;49.09;;
61286;Laerm;56412;53.148;8.204;2022-10-28T06:41:25;47.53;46.35;49.20;;
61286;Laerm;56412;53.148;8.204;2022-10-28T06:43:50;47.39;46.29;48.44;;
61286;Laerm;56412;53.148;8.204;2022-10-28T06:46:15;47.31;46.11;50.03;;
61286;Laerm;56412;53.148;8.204;2022-10-28T06:48:41;47.45;46.29;48.86;;
61286;Laerm;56412;53.148;8.204;2022-10-28T06:51:06;47.77;46.40;52.34;;
61286;Laerm;56412;53.148;8.204;2022-10-28T06:53:31;47.71;46.37;49.17;;
61286;Laerm;56412;53.148;8.204;2022-10-28T06:55:57;47.94;46.54;50.51;;
61286;Laerm;56412;53.148;8.204;2022-10-28T06:58:23;47.61;46.43;49.96;;
61286;Laerm;56412;53.148;8.204;2022-10-28T07:00:50;47.54;46.35;50.64;;
61286;Laerm;56412;53.148;8.204;2022-10-28T07:03:15;47.63;46.32;50.11;;
61286;Laerm;56412;53.148;8.204;2022-10-28T07:05:41;47.86;46.26;49.95;;
61286;Laerm;56412;53.148;8.204;2022-10-28T07:08:06;47.81;46.43;49.63;;
61286;Laerm;56412;53.148;8.204;2022-10-28T07:10:31;48.49;46.32;51.16;;
61286;Laerm;56412;53.148;8.204;2022-10-28T07:12:57;48.45;46.43;50.42;;
61286;Laerm;56412;53.148;8.204;2022-10-28T07:15:22;49.12;46.85;52.23;;
61286;Laerm;56412;53.148;8.204;2022-10-28T07:17:52;49.37;47.12;53.36;;
61286;Laerm;56412;53.148;8.204;2022-10-28T07:20:17;48.14;46.43;54.16;;
61286;Laerm;56412;53.148;8.204;2022-10-28T07:22:43;47.69;46.17;50.56;;
61286;Laerm;56412;53.148;8.204;2022-10-28T07:25:08;47.64;46.32;49.48;;
61286;Laerm;56412;53.148;8.204;2022-10-28T07:27:33;50.02;46.70;59.94;;
61286;Laerm;56412;53.148;8.204;2022-10-28T07:29:59;49.15;46.43;60.37;;
61286;Laerm;56412;53.148;8.204;2022-10-28T07:32:24;47.38;46.11;50.18;;
61286;Laerm;56412;53.148;8.204;2022-10-28T07:34:49;47.68;46.32;51.57;;
61286;Laerm;56412;53.148;8.204;2022-10-28T07:37:14;47.45;46.35;49.94;;
61286;Laerm;56412;53.148;8.204;2022-10-28T07:39:40;47.90;46.32;51.27;;
61286;Laerm;56412;53.148;8.204;2022-10-28T07:42:05;47.51;46.26;49.62;;
61286;Laerm;56412;53.148;8.204;2022-10-28T07:44:30;47.94;46.40;51.54;;
61286;Laerm;56412;53.148;8.204;2022-10-28T07:46:56;48.10;46.30;51.66;;
61286;Laerm;56412;53.148;8.204;2022-10-28T07:49:21;47.68;46.35;54.58;;
61286;Laerm;56412;53.148;8.204;2022-10-28T07:51:49;48.00;46.49;50.73;;
61286;Laerm;56412;53.148;8.204;2022-10-28T07:54:14;48.22;46.75;49.72;;
61286;Laerm;56412;53.148;8.204;2022-10-28T07:56:39;48.33;46.23;52.13;;
61286;Laerm;56412;53.148;8.204;2022-10-28T07:59:04;48.49;46.65;51.19;;
61286;Laerm;56412;53.148;8.204;2022-10-28T08:01:30;48.10;46.14;50.82;;
61286;Laerm;56412;53.148;8.204;2022-10-28T08:03:55;48.06;46.32;53.93;;
61286;Laerm;56412;53.148;8.204;2022-10-28T08:06:21;47.81;46.43;50.83;;
61286;Laerm;56412;53.148;8.204;2022-10-28T08:08:47;48.06;46.54;51.89;;
61286;Laerm;56412;53.148;8.204;2022-10-28T08:11:18;47.98;46.37;51.86;;
61286;Laerm;56412;53.148;8.204;2022-10-28T08:13:44;48.16;46.54;52.30;;
61286;Laerm;56412;53.148;8.204;2022-10-28T08:16:10;48.03;46.54;54.47;;
61286;Laerm;56412;53.148;8.204;2022-10-28T08:18:36;47.95;46.29;54.67;;
61286;Laerm;56412;53.148;8.204;2022-10-28T08:21:04;47.90;46.46;54.19;;
61286;Laerm;56412;53.148;8.204;2022-10-28T08:23:30;47.81;46.49;54.66;;
61286;Laerm;56412;53.148;8.204;2022-10-28T08:25:55;52.50;46.53;62.42;;
61286;Laerm;56412;53.148;8.204;2022-10-28T08:28:21;51.50;46.62;61.75;;
61286;Laerm;56412;53.148;8.204;2022-10-28T08:30:47;49.30;47.08;58.56;;
61286;Laerm;56412;53.148;8.204;2022-10-28T08:33:13;48.83;47.03;52.62;;
61286;Laerm;56412;53.148;8.204;2022-10-28T08:35:38;50.28;47.36;66.03;;
61286;Laerm;56412;53.148;8.204;2022-10-28T08:38:06;51.12;47.55;57.22;;
61286;Laerm;56412;53.148;8.204;2022-10-28T08:43:23;50.84;47.47;58.03;;
61286;Laerm;56412;53.148;8.204;2022-10-28T08:46:49;54.64;46.88;65.57;;
61286;Laerm;56412;53.148;8.204;2022-10-28T08:48:54;49.82;47.29;54.27;;
61286;Laerm;56412;53.148;8.204;2022-10-28T08:51:29;58.91;47.55;68.27;;
61286;Laerm;56412;53.148;8.204;2022-10-28T08:54:06;54.74;47.84;64.14;;
61286;Laerm;56412;53.148;8.204;2022-10-28T08:56:40;52.67;47.44;65.48;;
61286;Laerm;56412;53.148;8.204;2022-10-28T08:59:12;51.43;48.94;55.08;;
61286;Laerm;56412;53.148;8.204;2022-10-28T09:01:46;52.60;48.68;60.52;;
61286;Laerm;56412;53.148;8.204;2022-10-28T09:04:25;53.16;48.51;60.00;;
61286;Laerm;56412;53.148;8.204;2022-10-28T09:06:54;51.93;48.15;60.82;;
61286;Laerm;56412;53.148;8.204;2022-10-28T09:09:21;52.60;48.17;57.56;;
61286;Laerm;56412;53.148;8.204;2022-10-28T09:14:59;53.84;49.02;64.85;;
61286;Laerm;56412;53.148;8.204;2022-10-28T09:17:53;53.93;49.18;65.05;;
61286;Laerm;56412;53.148;8.204;2022-10-28T09:20:46;53.03;48.51;63.66;;
61286;Laerm;56412;53.148;8.204;2022-10-28T09:23:29;52.75;48.53;66.74;;
61286;Laerm;56412;53.148;8.204;2022-10-28T09:29:03;55.97;50.17;68.37;;
61286;Laerm;56412;53.148;8.204;2022-10-28T09:31:35;58.76;50.15;68.40;;
61286;Laerm;56412;53.148;8.204;2022-10-28T09:36:50;60.82;53.37;68.39;;
61286;Laerm;56412;53.148;8.204;2022-10-28T09:39:27;62.76;51.90;70.11;;
61286;Laerm;56412;53.148;8.204;2022-10-28T09:41:53;61.65;54.33;69.50;;
61286;Laerm;56412;53.148;8.204;2022-10-28T09:44:42;61.62;52.40;69.24;;
61286;Laerm;56412;53.148;8.204;2022-10-28T09:47:25;59.95;50.67;71.45;;
61286;Laerm;56412;53.148;8.204;2022-10-28T09:49:55;61.71;52.66;70.86;;
61286;Laerm;56412;53.148;8.204;2022-10-28T09:52:27;62.33;51.90;68.72;;
61286;Laerm;56412;53.148;8.204;2022-10-28T09:54:56;61.74;53.81;71.73;;
61286;Laerm;56412;53.148;8.204;2022-10-28T09:57:28;61.41;52.42;69.82;;
61286;Laerm;56412;53.148;8.204;2022-10-28T09:59:54;61.74;51.36;74.48;;
61286;Laerm;56412;53.148;8.204;2022-10-28T10:02:31;64.57;53.20;76.48;;
61286;Laerm;56412;53.148;8.204;2022-10-28T10:04:58;64.36;54.55;74.88;;
61286;Laerm;56412;53.148;8.204;2022-10-28T10:07:33;59.81;53.28;75.13;;
61286;Laerm;56412;53.148;8.204;2022-10-28T10:10:04;61.56;51.47;74.55;;
61286;Laerm;56412;53.148;8.204;2022-10-28T10:12:30;66.64;54.84;74.09;;
61286;Laerm;56412;53.148;8.204;2022-10-28T10:14:57;67.47;55.80;74.99;;
61286;Laerm;56412;53.148;8.204;2022-10-28T10:17:29;63.96;53.91;72.32;;
61286;Laerm;56412;53.148;8.204;2022-10-28T10:22:33;67.49;54.47;75.58;;
61286;Laerm;56412;53.148;8.204;2022-10-28T10:24:59;64.97;54.16;70.44;;
61286;Laerm;56412;53.148;8.204;2022-10-28T10:27:26;62.07;51.77;69.79;;
61286;Laerm;56412;53.148;8.204;2022-10-28T10:29:53;58.62;51.39;65.94;;
61286;Laerm;56412;53.148;8.204;2022-10-28T10:32:25;57.30;51.09;63.79;;
61286;Laerm;56412;53.148;8.204;2022-10-28T10:35:17;58.50;51.32;66.40;;
61286;Laerm;56412;53.148;8.204;2022-10-28T10:37:46;61.05;50.64;70.22;;
61286;Laerm;56412;53.148;8.204;2022-10-28T10:42:40;63.33;50.44;71.76;;
61286;Laerm;56412;53.148;8.204;2022-10-28T10:45:19;61.60;49.75;70.84;;
61286;Laerm;56412;53.148;8.204;2022-10-28T10:47:45;55.90;49.15;62.18;;
61286;Laerm;56412;53.148;8.204;2022-10-28T10:50:27;54.29;49.38;65.28;;
61286;Laerm;56412;53.148;8.204;2022-10-28T10:52:56;54.93;50.11;63.78;;
61286;Laerm;56412;53.148;8.204;2022-10-28T10:57:52;59.45;49.70;68.12;;
61286;Laerm;56412;53.148;8.204;2022-10-28T11:00:19;58.53;51.76;67.56;;
61286;Laerm;56412;53.148;8.204;2022-10-28T11:02:47;58.73;51.10;68.56;;
61286;Laerm;56412;53.148;8.204;2022-10-28T11:05:19;56.51;50.42;66.42;;
61286;Laerm;56412;53.148;8.204;2022-10-28T11:07:47;56.13;49.26;67.75;;
61286;Laerm;56412;53.148;8.204;2022-10-28T11:10:27;55.81;50.07;62.67;;
61286;Laerm;56412;53.148;8.204;2022-10-28T11:13:02;57.43;49.56;66.61;;
61286;Laerm;56412;53.148;8.204;2022-10-28T11:15:29;60.58;50.81;70.83;;
61286;Laerm;56412;53.148;8.204;2022-10-28T11:18:01;63.58;51.17;74.55;;
61286;Laerm;56412;53.148;8.204;2022-10-28T11:20:45;64.20;51.02;72.97;;
61286;Laerm;56412;53.148;8.204;2022-10-28T11:25:53;62.89;51.21;72.93;;
61286;Laerm;56412;53.148;8.204;2022-10-28T11:31:20;71.76;49.76;76.43;;
61286;Laerm;56412;53.148;8.204;2022-10-28T11:34:14;70.54;53.14;76.62;;
61286;Laerm;56412;53.148;8.204;2022-10-28T11:37:13;66.32;51.73;73.39;;
61286;Laerm;56412;53.148;8.204;2022-10-28T11:42:46;59.71;52.23;78.26;;
61286;Laerm;56412;53.148;8.204;2022-10-28T11:45:53;58.47;51.70;70.39;;
61286;Laerm;56412;53.148;8.204;2022-10-28T11:48:43;58.90;53.45;64.13;;
61286;Laerm;56412;53.148;8.204;2022-10-28T11:56:36;58.36;53.02;67.32;;
61286;Laerm;56412;53.148;8.204;2022-10-28T12:02:03;58.18;52.00;72.32;;
61286;Laerm;56412;53.148;8.204;2022-10-28T12:04:47;65.86;51.37;77.00;;
61286;Laerm;56412;53.148;8.204;2022-10-28T12:10:21;58.35;53.29;67.33;;
61286;Laerm;56412;53.148;8.204;2022-10-28T12:15:54;58.70;51.97;70.83;;
61286;Laerm;56412;53.148;8.204;2022-10-28T12:18:28;60.22;52.64;69.73;;
61286;Laerm;56412;53.148;8.204;2022-10-28T12:23:48;56.34;51.28;63.19;;
61286;Laerm;56412;53.148;8.204;2022-10-28T12:26:16;58.15;50.86;67.25;;
61286;Laerm;56412;53.148;8.204;2022-10-28T12:28:50;56.40;52.15;63.59;;
61286;Laerm;56412;53.148;8.204;2022-10-28T12:31:27;58.70;51.11;79.11;;
61286;Laerm;56412;53.148;8.204;2022-10-28T12:33:56;57.27;52.98;66.00;;
61286;Laerm;56412;53.148;8.204;2022-10-28T12:36:33;57.86;53.64;65.64;;
61286;Laerm;56412;53.148;8.204;2022-10-28T12:39:13;59.28;54.53;65.50;;
61286;Laerm;56412;53.148;8.204;2022-10-28T12:41:59;59.52;53.57;64.86;;
61286;Laerm;56412;53.148;8.204;2022-10-28T12:44:26;59.62;54.43;67.76;;
61286;Laerm;56412;53.148;8.204;2022-10-28T12:47:03;60.46;51.13;71.40;;
61286;Laerm;56412;53.148;8.204;2022-10-28T12:52:38;61.17;50.85;73.48;;
61286;Laerm;56412;53.148;8.204;2022-10-28T12:55:30;58.63;52.43;70.32;;
61286;Laerm;56412;53.148;8.204;2022-10-28T12:58:13;62.87;52.46;70.83;;
61286;Laerm;56412;53.148;8.204;2022-10-28T13:00:42;61.68;52.28;70.76;;
61286;Laerm;56412;53.148;8.204;2022-10-28T13:03:13;58.16;52.64;65.26;;
61286;Laerm;56412;53.148;8.204;2022-10-28T13:05:51;57.76;52.44;67.84;;
61286;Laerm;56412;53.148;8.204;2022-10-28T13:11:20;59.98;52.94;71.45;;
61286;Laerm;56412;53.148;8.204;2022-10-28T13:17:12;66.35;51.29;73.73;;
61286;Laerm;56412;53.148;8.204;2022-10-28T13:20:02;55.58;51.12;61.25;;
61286;Laerm;56412;53.148;8.204;2022-10-28T13:28:02;67.82;55.41;74.94;;
61286;Laerm;56412;53.148;8.204;2022-10-28T13:30:28;67.59;55.13;73.46;;
61286;Laerm;56412;53.148;8.204;2022-10-28T13:33:07;67.31;55.82;73.93;;
61286;Laerm;56412;53.148;8.204;2022-10-28T13:35:34;67.58;60.06;73.34;;
61286;Laerm;56412;53.148;8.204;2022-10-28T13:38:01;66.47;57.72;73.32;;
61286;Laerm;56412;53.148;8.204;2022-10-28T13:43:00;66.83;58.64;71.26;;
61286;Laerm;56412;53.148;8.204;2022-10-28T13:46:01;68.16;52.53;78.50;;
61286;Laerm;56412;53.148;8.204;2022-10-28T13:56:40;59.53;54.96;65.02;;
61286;Laerm;56412;53.148;8.204;2022-10-28T13:59:23;61.41;53.94;67.92;;
61286;Laerm;56412;53.148;8.204;2022-10-28T14:01:51;58.32;52.79;65.71;;
61286;Laerm;56412;53.148;8.204;2022-10-28T14:04:24;57.29;50.71;66.59;;
61286;Laerm;56412;53.148;8.204;2022-10-28T14:06:59;57.20;51.03;66.83;;
61286;Laerm;56412;53.148;8.204;2022-10-28T14:09:28;55.93;49.75;67.83;;
61286;Laerm;56412;53.148;8.204;2022-10-28T14:12:16;54.36;48.17;71.14;;
61286;Laerm;56412;53.148;8.204;2022-10-28T14:14:57;55.42;48.88;65.44;;
61286;Laerm;56412;53.148;8.204;2022-10-28T14:17:27;55.90;50.37;69.52;;
61286;Laerm;56412;53.148;8.204;2022-10-28T14:19:54;57.21;51.58;66.72;;
61286;Laerm;56412;53.148;8.204;2022-10-28T14:22:30;54.90;50.05;66.81;;
61286;Laerm;56412;53.148;8.204;2022-10-28T14:24:57;54.09;49.63;65.51;;
61286;Laerm;56412;53.148;8.204;2022-10-28T14:27:27;54.87;50.07;64.32;;
61286;Laerm;56412;53.148;8.204;2022-10-28T14:43:26;54.59;49.40;62.48;;
61286;Laerm;56412;53.148;8.204;2022-10-28T14:46:08;54.09;48.88;61.35;;
61286;Laerm;56412;53.148;8.204;2022-10-28T14:48:57;53.87;48.46;73.75;;
61286;Laerm;56412;53.148;8.204;2022-10-28T14:51:26;54.94;48.17;69.19;;
61286;Laerm;56412;53.148;8.204;2022-10-28T14:53:55;56.71;50.12;67.09;;
61286;Laerm;56412;53.148;8.204;2022-10-28T14:56:24;55.90;49.38;68.34;;
61286;Laerm;56412;53.148;8.204;2022-10-28T14:58:51;57.48;47.78;68.36;;
61286;Laerm;56412;53.148;8.204;2022-10-28T15:01:27;59.87;50.17;71.00;;
61286;Laerm;56412;53.148;8.204;2022-10-28T15:04:03;55.46;49.00;67.31;;
61286;Laerm;56412;53.148;8.204;2022-10-28T15:06:36;55.00;49.33;61.70;;
61286;Laerm;56412;53.148;8.204;2022-10-28T15:09:27;57.13;51.09;62.54;;
61286;Laerm;56412;53.148;8.204;2022-10-28T15:11:59;58.06;50.18;67.98;;
61286;Laerm;56412;53.148;8.204;2022-10-28T15:14:40;55.48;48.55;70.80;;
61286;Laerm;56412;53.148;8.204;2022-10-28T15:17:38;61.42;50.26;73.73;;
61286;Laerm;56412;53.148;8.204;2022-10-28T15:20:22;55.80;51.92;63.78;;
61286;Laerm;56412;53.148;8.204;2022-10-28T15:22:49;57.33;50.92;69.56;;
61286;Laerm;56412;53.148;8.204;2022-10-28T15:25:16;53.76;50.54;59.68;;
61286;Laerm;56412;53.148;8.204;2022-10-28T15:27:43;53.80;50.78;57.31;;
61286;Laerm;56412;53.148;8.204;2022-10-28T15:30:15;63.13;51.73;67.40;;
61286;Laerm;56412;53.148;8.204;2022-10-28T15:32:43;62.08;49.87;67.90;;
61286;Laerm;56412;53.148;8.204;2022-10-28T15:37:53;59.27;52.63;67.52;;
61286;Laerm;56412;53.148;8.204;2022-10-28T15:40:27;57.00;50.67;65.94;;
61286;Laerm;56412;53.148;8.204;2022-10-28T15:42:59;59.07;51.44;66.06;;
61286;Laerm;56412;53.148;8.204;2022-10-28T15:45:27;61.11;51.46;66.71;;
61286;Laerm;56412;53.148;8.204;2022-10-28T15:47:54;57.43;50.37;63.72;;
61286;Laerm;56412;53.148;8.204;2022-10-28T15:52:51;55.72;49.88;61.69;;
61286;Laerm;56412;53.148;8.204;2022-10-28T15:57:56;52.93;49.02;61.58;;
61286;Laerm;56412;53.148;8.204;2022-10-28T16:00:29;52.26;48.81;57.53;;